Time;durP1;ratioP1;P1;durP2;ratioP2;P2;SDS_P1;SDS_P2;PMS_P1;PMS_P2;Temp;Humidity;BMP_temperature;BMP_pressure;BME280_temperature;BME280_humidity;BME280_pressure;Samples;Min_cycle;Max_cycle;Signal;HPM_P1;HPM_P2
2023/09/28 00:02:49;;;;;;;10.60;8.70;;;16.10;99.90;;;;;;5052780;28;20486;-59
2023/09/28 00:05:19;;;;;;;10.93;9.27;;;16.10;99.90;;;;;;5053121;28;20458;-58
2023/09/28 00:07:46;;;;;;;10.90;9.80;;;16.10;99.90;;;;;;5052888;28;21022;-58
2023/09/28 00:10:15;;;;;;;10.60;9.10;;;16.10;99.90;;;;;;5053276;28;20441;-58
2023/09/28 00:12:42;;;;;;;9.50;7.87;;;16.20;99.90;;;;;;5052817;28;20466;-58
2023/09/28 00:15:10;;;;;;;10.83;9.73;;;16.10;99.90;;;;;;5053073;28;20556;-58
2023/09/28 00:17:38;;;;;;;10.60;9.40;;;16.10;99.90;;;;;;5052538;28;20528;-57
2023/09/28 00:20:09;;;;;;;10.43;8.77;;;16.20;99.90;;;;;;5052940;28;20440;-58
2023/09/28 00:22:37;;;;;;;9.80;8.80;;;16.20;99.90;;;;;;5052495;28;21044;-58
2023/09/28 00:25:09;;;;;;;10.43;8.63;;;16.20;99.90;;;;;;5052922;28;20452;-58
2023/09/28 00:27:35;;;;;;;10.23;9.33;;;16.20;99.90;;;;;;5054551;28;20494;-59
2023/09/28 00:30:02;;;;;;;10.40;9.07;;;16.20;99.90;;;;;;5057307;28;20934;-58
2023/09/28 00:32:29;;;;;;;10.70;9.70;;;16.20;99.90;;;;;;5057138;28;20834;-58
2023/09/28 00:34:55;;;;;;;11.77;8.60;;;16.20;99.90;;;;;;5056606;28;20951;-58
2023/09/28 00:37:21;;;;;;;10.07;8.60;;;16.20;99.90;;;;;;5056353;28;20481;-59
2023/09/28 00:39:49;;;;;;;9.80;8.07;;;16.10;99.90;;;;;;5056537;28;20966;-59
2023/09/28 00:42:16;;;;;;;11.73;8.57;;;16.10;99.90;;;;;;5056551;28;20479;-58
2023/09/28 00:44:42;;;;;;;10.00;9.00;;;16.10;99.90;;;;;;5056379;28;20522;-59
2023/09/28 00:47:10;;;;;;;9.93;8.23;;;16.10;99.90;;;;;;5056247;28;20880;-58
2023/09/28 00:49:36;;;;;;;11.67;9.40;;;16.10;99.90;;;;;;5056639;28;20513;-58
2023/09/28 00:52:03;;;;;;;9.80;8.80;;;16.10;99.90;;;;;;5056426;28;20458;-58
2023/09/28 00:54:29;;;;;;;9.50;8.30;;;16.10;99.90;;;;;;5056513;28;20444;-58
2023/09/28 00:56:57;;;;;;;10.30;9.20;;;16.10;99.90;;;;;;5056302;28;20845;-59
2023/09/28 00:59:23;;;;;;;11.20;9.40;;;16.10;99.90;;;;;;5056366;28;20206;-58
2023/09/28 01:01:50;;;;;;;17.70;9.47;;;16.10;99.90;;;;;;5056297;28;20994;-57
2023/09/28 01:04:16;;;;;;;9.93;8.80;;;16.10;99.90;;;;;;5056348;28;20205;-59
2023/09/28 01:06:43;;;;;;;13.50;9.30;;;16.10;99.90;;;;;;5056216;28;20444;-59
2023/09/28 01:09:09;;;;;;;10.10;9.00;;;16.10;99.90;;;;;;5056562;28;20439;-58
2023/09/28 01:11:37;;;;;;;9.70;8.70;;;16.10;99.90;;;;;;5056394;28;20469;-58
2023/09/28 01:14:04;;;;;;;9.60;8.50;;;16.20;99.90;;;;;;5055853;28;20927;-58
2023/09/28 01:16:31;;;;;;;10.87;9.73;;;16.20;99.90;;;;;;5055635;28;20532;-58
2023/09/28 01:18:57;;;;;;;9.80;8.10;;;16.20;99.90;;;;;;5056050;28;20451;-58
2023/09/28 01:21:23;;;;;;;10.13;8.47;;;16.10;99.90;;;;;;5055663;28;20465;-59
2023/09/28 01:23:51;;;;;;;10.47;8.97;;;16.10;99.90;;;;;;5055899;28;20582;-58
2023/09/28 01:26:18;;;;;;;9.57;8.57;;;16.10;99.90;;;;;;5055849;28;20449;-59
2023/09/28 01:28:43;;;;;;;10.60;9.00;;;16.10;99.90;;;;;;5055641;28;20445;-58
2023/09/28 01:31:10;;;;;;;10.10;9.10;;;16.10;99.90;;;;;;5055616;28;20549;-59
2023/09/28 01:33:37;;;;;;;10.03;8.43;;;16.00;99.90;;;;;;5055701;28;20229;-58
2023/09/28 01:36:04;;;;;;;10.20;9.20;;;16.00;99.90;;;;;;5055704;28;20439;-58
2023/09/28 01:38:35;;;;;;;10.70;9.70;;;16.00;99.90;;;;;;5055085;28;20499;-58
2023/09/28 01:41:03;;;;;;;11.50;9.07;;;16.00;99.90;;;;;;5055321;28;20453;-58
2023/09/28 01:43:29;;;;;;;15.27;9.80;;;16.10;99.90;;;;;;5055169;28;20945;-58
2023/09/28 01:45:56;;;;;;;11.67;9.13;;;16.10;99.90;;;;;;5055137;28;20455;-59
2023/09/28 01:48:21;;;;;;;10.20;9.10;;;16.10;99.90;;;;;;5055364;28;20200;-59
2023/09/28 01:50:48;;;;;;;9.20;8.30;;;16.10;99.90;;;;;;5055551;28;20438;-59
2023/09/28 01:53:15;;;;;;;10.50;8.33;;;16.10;99.90;;;;;;5055300;28;20207;-58
2023/09/28 01:55:40;;;;;;;10.57;8.27;;;16.10;99.90;;;;;;5055056;28;20803;-59
2023/09/28 01:58:09;;;;;;;10.77;9.63;;;16.10;99.90;;;;;;5055155;28;20481;-59
2023/09/28 02:00:34;;;;;;;10.90;8.73;;;16.10;99.90;;;;;;5055242;28;20210;-59
2023/09/28 02:03:04;;;;;;;9.67;8.67;;;16.10;99.90;;;;;;5062502;22;20485;-59
2023/09/28 02:05:32;;;;;;;9.90;8.90;;;16.00;99.90;;;;;;5035208;28;20215;-61
2023/09/28 02:07:59;;;;;;;9.40;8.50;;;16.00;99.90;;;;;;5035437;28;20504;-61
2023/09/28 02:10:25;;;;;;;9.60;8.57;;;16.00;99.90;;;;;;5035382;28;20516;-61
2023/09/28 02:12:52;;;;;;;10.40;9.50;;;15.90;99.90;;;;;;5035315;28;20462;-61
2023/09/28 02:15:19;;;;;;;8.93;8.13;;;15.90;99.90;;;;;;5035493;28;20446;-60
2023/09/28 02:17:46;;;;;;;9.37;8.57;;;15.80;99.90;;;;;;5035346;28;20478;-61
2023/09/28 02:20:15;;;;;;;8.97;8.07;;;15.80;99.90;;;;;;5035327;28;20442;-61
2023/09/28 02:22:43;;;;;;;11.13;8.87;;;15.80;99.90;;;;;;5035062;28;20466;-61
2023/09/28 02:25:10;;;;;;;9.67;8.50;;;15.70;99.90;;;;;;5035441;28;20549;-61
2023/09/28 02:27:37;;;;;;;13.27;10.43;;;15.70;99.90;;;;;;5035064;28;20568;-60
2023/09/28 02:30:04;;;;;;;14.63;9.97;;;15.70;99.90;;;;;;5035182;28;20912;-60
2023/09/28 02:32:33;;;;;;;9.53;8.63;;;15.70;99.90;;;;;;5034766;28;20465;-61
2023/09/28 02:34:59;;;;;;;10.87;9.70;;;15.80;99.90;;;;;;5035101;28;20439;-60
2023/09/28 02:37:26;;;;;;;10.90;9.73;;;15.80;99.90;;;;;;5034768;28;20519;-60
2023/09/28 02:39:52;;;;;;;11.10;9.93;;;15.80;99.90;;;;;;5034804;28;20445;-60
2023/09/28 02:42:18;;;;;;;12.03;10.30;;;15.80;99.90;;;;;;5034751;28;20474;-60
2023/09/28 02:44:44;;;;;;;15.83;9.83;;;15.80;99.90;;;;;;5034673;28;20204;-61
2023/09/28 02:47:11;;;;;;;11.93;10.73;;;15.80;99.90;;;;;;5034480;28;20790;-60
2023/09/28 02:49:38;;;;;;;11.07;9.93;;;15.90;99.90;;;;;;5034329;28;20203;-62
2023/09/28 02:52:06;;;;;;;10.77;9.67;;;15.90;99.90;;;;;;5033568;28;20555;-60
2023/09/28 02:54:32;;;;;;;13.53;9.53;;;15.90;99.90;;;;;;5034741;28;20450;-60
2023/09/28 02:56:58;;;;;;;11.00;9.87;;;15.90;99.90;;;;;;5034466;28;20487;-61
2023/09/28 02:59:24;;;;;;;11.00;9.97;;;15.90;99.90;;;;;;5034257;28;20213;-62
2023/09/28 03:01:52;;;;;;;11.00;9.80;;;15.90;99.90;;;;;;5034197;28;20477;-61
2023/09/28 03:04:17;;;;;;;11.40;9.97;;;15.90;99.90;;;;;;5034221;28;20551;-60
2023/09/28 03:06:46;;;;;;;9.97;8.93;;;15.80;99.90;;;;;;5034177;28;20441;-60
2023/09/28 03:09:12;;;;;;;10.73;9.63;;;15.80;99.90;;;;;;5033974;28;20821;-60
2023/09/28 03:11:40;;;;;;;10.47;8.90;;;15.80;99.90;;;;;;5033901;28;20997;-61
2023/09/28 03:14:06;;;;;;;10.07;9.00;;;15.80;99.90;;;;;;5034078;28;20440;-61
2023/09/28 03:16:34;;;;;;;9.77;8.77;;;15.80;99.90;;;;;;5034211;28;20442;-61
2023/09/28 03:19:00;;;;;;;11.03;9.93;;;15.80;99.90;;;;;;5033932;28;20486;-60
2023/09/28 03:21:29;;;;;;;11.57;9.13;;;15.80;99.90;;;;;;5033894;28;20458;-62
2023/09/28 03:23:57;;;;;;;12.23;9.23;;;15.80;99.90;;;;;;5033899;28;20468;-61
2023/09/28 03:26:24;;;;;;;10.70;9.70;;;15.80;99.90;;;;;;5033770;28;20458;-61
2023/09/28 03:28:50;;;;;;;11.60;9.97;;;15.80;99.90;;;;;;5033940;28;20442;-61
2023/09/28 03:31:16;;;;;;;10.73;9.70;;;15.80;99.90;;;;;;5033846;28;20445;-62
2023/09/28 03:33:42;;;;;;;10.17;9.23;;;15.80;99.90;;;;;;5033709;28;20207;-61
2023/09/28 03:36:09;;;;;;;10.60;9.50;;;15.80;99.90;;;;;;5033890;28;20448;-61
2023/09/28 03:38:36;;;;;;;12.90;9.57;;;15.80;99.90;;;;;;5034304;28;20245;-60
2023/09/28 03:41:06;;;;;;;11.87;9.20;;;15.80;99.90;;;;;;5034784;28;20446;-61
2023/09/28 03:43:33;;;;;;;10.23;9.10;;;15.80;99.90;;;;;;5034761;28;20429;-59
2023/09/28 03:46:00;;;;;;;10.80;9.27;;;15.90;99.90;;;;;;5034666;28;20453;-60
2023/09/28 03:48:26;;;;;;;11.60;9.47;;;15.90;99.90;;;;;;5034072;28;20437;-59
2023/09/28 03:50:53;;;;;;;10.90;9.80;;;15.90;99.90;;;;;;5033943;28;20442;-59
2023/09/28 03:53:20;;;;;;;9.77;8.77;;;16.00;99.90;;;;;;5034132;28;20480;-60
2023/09/28 03:55:49;;;;;;;12.80;9.67;;;16.00;99.90;;;;;;5036714;28;20430;-60
2023/09/28 03:58:17;;;;;;;11.97;10.00;;;16.10;99.90;;;;;;5036008;28;20514;-58
2023/09/28 04:03:12;;;;;;;9.50;8.60;;;16.10;99.90;;;;;;5051651;28;20464;-56
2023/09/28 04:05:39;;;;;;;14.57;9.63;;;16.10;99.90;;;;;;5053518;28;20804;-55
2023/09/28 04:08:07;;;;;;;10.70;9.23;;;16.10;99.90;;;;;;5053795;28;20439;-56
2023/09/28 04:12:16;;;;;;;11.97;9.10;;;16.20;99.90;;;;;;5091631;27;20625;-56
2023/09/28 04:14:43;;;;;;;11.63;9.87;;;16.30;99.90;;;;;;5091678;28;20448;-56
2023/09/28 04:17:09;;;;;;;10.43;9.33;;;16.30;99.90;;;;;;5091954;28;20447;-57
2023/09/28 04:19:36;;;;;;;12.73;10.03;;;16.30;99.90;;;;;;5091220;28;20444;-57
2023/09/28 04:22:03;;;;;;;9.60;8.70;;;16.30;99.90;;;;;;5090898;28;20978;-56
2023/09/28 04:24:30;;;;;;;10.07;9.03;;;16.40;99.90;;;;;;5091198;28;20441;-55
2023/09/28 04:26:58;;;;;;;9.80;8.87;;;16.40;99.90;;;;;;5091694;28;20445;-55
2023/09/28 04:29:26;;;;;;;11.50;10.20;;;16.40;99.90;;;;;;5090448;28;20448;-56
2023/09/28 04:31:53;;;;;;;14.30;10.03;;;16.40;99.90;;;;;;5089987;28;21031;-56
2023/09/28 04:34:20;;;;;;;10.10;9.10;;;16.40;99.90;;;;;;5090912;28;20946;-56
2023/09/28 04:36:49;;;;;;;11.13;9.87;;;16.50;99.90;;;;;;5090410;28;20934;-56
2023/09/28 04:39:17;;;;;;;9.60;8.40;;;16.50;99.90;;;;;;5089974;28;20454;-56
2023/09/28 04:41:44;;;;;;;10.73;9.60;;;16.50;99.90;;;;;;5089651;28;20547;-57
2023/09/28 04:44:11;;;;;;;12.00;10.50;;;16.50;99.90;;;;;;5090057;28;20445;-56
2023/09/28 04:46:39;;;;;;;13.40;10.27;;;16.50;99.90;;;;;;5089778;28;20445;-57
2023/09/28 04:49:06;;;;;;;11.87;10.10;;;16.50;99.90;;;;;;5089929;28;20456;-56
2023/09/28 04:51:34;;;;;;;12.27;9.23;;;16.50;99.90;;;;;;5089698;28;20542;-57
2023/09/28 04:54:03;;;;;;;10.57;9.57;;;16.50;99.90;;;;;;5089563;28;20442;-56
2023/09/28 04:56:30;;;;;;;11.53;9.60;;;16.60;99.90;;;;;;5089322;28;20476;-55
2023/09/28 04:58:57;;;;;;;10.10;8.80;;;16.50;99.90;;;;;;5089011;28;20942;-56
2023/09/28 05:01:24;;;;;;;10.63;9.63;;;16.60;99.90;;;;;;5088731;28;20984;-56
2023/09/28 05:03:53;;;;;;;10.77;9.77;;;16.60;99.90;;;;;;5089338;28;20448;-56
2023/09/28 05:06:19;;;;;;;9.83;8.93;;;16.60;99.90;;;;;;5089456;28;20536;-55
2023/09/28 05:08:46;;;;;;;11.60;8.90;;;16.60;99.90;;;;;;5090337;28;20799;-57
2023/09/28 05:11:13;;;;;;;9.93;8.93;;;16.70;99.90;;;;;;5088867;28;21082;-57
2023/09/28 05:13:40;;;;;;;9.50;8.60;;;16.70;99.90;;;;;;5089445;28;20440;-57
2023/09/28 05:16:07;;;;;;;9.60;8.67;;;16.70;99.90;;;;;;5089504;28;20441;-57
2023/09/28 05:18:34;;;;;;;9.50;8.60;;;16.80;99.90;;;;;;5089330;28;20460;-55
2023/09/28 05:21:02;;;;;;;10.33;9.33;;;16.80;99.90;;;;;;5088905;28;20523;-56
2023/09/28 05:23:29;;;;;;;14.10;8.73;;;16.80;99.90;;;;;;5076433;28;20446;-58
2023/09/28 05:25:56;;;;;;;9.83;8.93;;;16.90;99.90;;;;;;5075670;28;20438;-57
2023/09/28 05:28:23;;;;;;;12.27;9.57;;;16.90;99.90;;;;;;5075282;28;20830;-56
2023/09/28 05:30:50;;;;;;;13.73;9.50;;;16.90;99.90;;;;;;5075741;28;20470;-56
2023/09/28 05:33:16;;;;;;;9.53;8.50;;;16.90;99.90;;;;;;5075628;28;20449;-56
2023/09/28 05:35:43;;;;;;;10.43;9.40;;;17.00;99.90;;;;;;5075584;28;20449;-57
2023/09/28 05:38:11;;;;;;;11.37;9.20;;;17.00;99.90;;;;;;5075428;28;20446;-56
2023/09/28 05:40:38;;;;;;;9.70;8.73;;;17.00;99.90;;;;;;5075315;28;20765;-56
2023/09/28 05:43:05;;;;;;;10.00;9.00;;;16.90;99.90;;;;;;5075346;28;20441;-54
2023/09/28 05:45:32;;;;;;;9.60;8.60;;;16.90;99.90;;;;;;5075492;28;20450;-56
2023/09/28 05:47:59;;;;;;;12.27;8.90;;;16.90;99.90;;;;;;5075495;28;20443;-59
2023/09/28 05:50:26;;;;;;;11.60;9.10;;;17.00;99.90;;;;;;5075197;28;20446;-57
2023/09/28 05:52:55;;;;;;;11.67;9.87;;;17.00;99.90;;;;;;5075136;28;20459;-57
2023/09/28 05:55:25;;;;;;;8.93;7.93;;;17.00;99.90;;;;;;5075149;28;20900;-57
2023/09/28 05:57:52;;;;;;;14.53;9.50;;;17.10;99.90;;;;;;5074848;28;20940;-56
2023/09/28 06:00:19;;;;;;;10.13;9.10;;;17.10;99.90;;;;;;5075253;28;20561;-57
2023/09/28 06:02:45;;;;;;;11.60;10.17;;;17.10;99.90;;;;;;5075140;28;20830;-57
2023/09/28 06:05:12;;;;;;;10.50;9.50;;;17.20;99.90;;;;;;5074465;28;20469;-57
2023/09/28 06:07:39;;;;;;;11.30;8.43;;;17.20;99.90;;;;;;5075114;28;20469;-57
2023/09/28 06:10:08;;;;;;;10.13;8.23;;;17.30;99.90;;;;;;5074705;28;20524;-57
2023/09/28 06:12:36;;;;;;;12.80;9.40;;;17.30;99.90;;;;;;5074587;28;20927;-57
2023/09/28 06:15:04;;;;;;;9.87;8.47;;;17.40;99.90;;;;;;5074577;28;20933;-59
2023/09/28 06:17:31;;;;;;;10.20;9.03;;;17.50;99.90;;;;;;5074647;28;20439;-57
2023/09/28 06:19:57;;;;;;;12.37;9.93;;;17.60;99.90;;;;;;5075016;28;20439;-57
2023/09/28 06:22:24;;;;;;;12.20;11.00;;;17.60;99.90;;;;;;5075633;28;20466;-57
2023/09/28 06:24:51;;;;;;;10.90;9.77;;;17.70;99.90;;;;;;5076616;28;20443;-57
2023/09/28 06:27:17;;;;;;;10.83;9.60;;;17.80;99.90;;;;;;5075949;28;20960;-57
2023/09/28 06:29:52;;;;;;;9.37;8.47;;;17.90;99.90;;;;;;5077360;28;20438;-57
2023/09/28 06:32:19;;;;;;;10.13;8.60;;;18.00;99.90;;;;;;5078488;28;20483;-57
2023/09/28 06:34:46;;;;;;;9.17;8.37;;;18.00;99.90;;;;;;5077466;28;20848;-57
2023/09/28 06:37:12;;;;;;;9.40;8.40;;;18.10;99.90;;;;;;5075403;28;20952;-58
2023/09/28 06:39:40;;;;;;;10.07;8.27;;;18.10;99.90;;;;;;5074425;28;20443;-58
2023/09/28 06:42:06;;;;;;;10.00;8.20;;;18.20;99.90;;;;;;5074515;28;20549;-57
2023/09/28 06:44:34;;;;;;;8.10;7.40;;;18.20;99.90;;;;;;5074372;28;20524;-58
2023/09/28 06:47:03;;;;;;;10.33;8.87;;;18.30;99.90;;;;;;5074324;28;20447;-57
2023/09/28 06:49:29;;;;;;;7.77;7.00;;;18.30;99.90;;;;;;5073700;28;20456;-58
2023/09/28 06:51:56;;;;;;;8.90;7.20;;;18.40;99.90;;;;;;5073795;28;20488;-58
2023/09/28 06:54:23;;;;;;;7.20;6.50;;;18.40;99.90;;;;;;5074157;28;20500;-58
2023/09/28 06:56:50;;;;;;;10.17;6.90;;;18.40;99.90;;;;;;5074120;28;20451;-57
2023/09/28 06:59:16;;;;;;;7.43;6.43;;;18.50;99.90;;;;;;5073984;28;20449;-57
2023/09/28 07:01:43;;;;;;;10.23;7.03;;;18.50;99.90;;;;;;5073664;28;20551;-57
2023/09/28 07:04:11;;;;;;;8.13;6.43;;;18.50;99.90;;;;;;5073806;28;20445;-57
2023/09/28 07:06:38;;;;;;;9.00;5.93;;;18.50;99.90;;;;;;5073899;28;20449;-57
2023/09/28 07:09:05;;;;;;;6.30;5.73;;;18.40;99.90;;;;;;5073955;28;20982;-57
2023/09/28 07:11:32;;;;;;;6.50;5.90;;;18.40;99.90;;;;;;5073247;28;20586;-57
2023/09/28 07:13:59;;;;;;;7.70;6.53;;;18.50;99.90;;;;;;5073295;28;20899;-57
2023/09/28 07:16:25;;;;;;;8.13;6.73;;;18.50;99.90;;;;;;5073631;28;20444;-57
2023/09/28 07:18:52;;;;;;;7.60;6.57;;;18.50;99.90;;;;;;5073173;28;20451;-57
2023/09/28 07:21:20;;;;;;;6.93;5.93;;;18.60;99.90;;;;;;5073804;28;20469;-56
2023/09/28 07:23:47;;;;;;;10.30;6.57;;;18.60;99.90;;;;;;5073905;28;20449;-56
2023/09/28 07:26:16;;;;;;;6.73;6.13;;;18.70;99.90;;;;;;5073562;28;20440;-58
2023/09/28 07:28:43;;;;;;;6.57;5.83;;;18.70;99.90;;;;;;5073419;28;20446;-58
2023/09/28 07:31:09;;;;;;;5.90;5.40;;;18.80;99.90;;;;;;5073451;28;20492;-58
2023/09/28 07:33:36;;;;;;;7.87;6.00;;;18.90;99.90;;;;;;5073786;28;20441;-58
2023/09/28 07:36:05;;;;;;;7.57;6.43;;;18.90;99.90;;;;;;5073300;28;20456;-58
2023/09/28 07:38:34;;;;;;;7.53;6.00;;;19.00;99.90;;;;;;5073789;28;20450;-59
2023/09/28 07:41:01;;;;;;;6.37;5.77;;;19.20;99.90;;;;;;5073989;28;20466;-58
2023/09/28 07:43:27;;;;;;;7.77;6.00;;;19.20;99.90;;;;;;5074515;28;20442;-57
2023/09/28 07:45:55;;;;;;;7.70;6.20;;;19.30;99.90;;;;;;5074897;28;20467;-56
2023/09/28 07:48:22;;;;;;;8.10;5.93;;;19.30;99.90;;;;;;5073022;28;20457;-57
2023/09/28 07:50:49;;;;;;;11.20;5.20;;;19.40;99.90;;;;;;5073317;28;20458;-57
2023/09/28 07:53:15;;;;;;;8.20;5.67;;;19.50;99.90;;;;;;5073048;28;20537;-58
2023/09/28 07:55:44;;;;;;;7.80;4.73;;;19.70;99.90;;;;;;5072514;28;20858;-58
2023/09/28 07:58:10;;;;;;;8.07;4.83;;;19.80;99.90;;;;;;5073083;28;20439;-57
2023/09/28 08:00:37;;;;;;;6.13;4.53;;;20.00;99.90;;;;;;5072564;28;20446;-57
2023/09/28 08:03:04;;;;;;;9.30;5.67;;;20.10;99.90;;;;;;5073217;28;20472;-57
2023/09/28 08:05:31;;;;;;;13.83;5.60;;;20.30;99.90;;;;;;5073151;28;20454;-57
2023/09/28 08:07:58;;;;;;;8.30;5.60;;;20.50;99.90;;;;;;5073243;28;20847;-57
2023/09/28 08:10:25;;;;;;;4.50;4.10;;;20.60;99.90;;;;;;5074270;28;20455;-57
2023/09/28 08:12:53;;;;;;;6.33;5.23;;;20.70;99.90;;;;;;5073373;28;20484;-57
2023/09/28 08:15:20;;;;;;;5.20;4.67;;;20.80;99.90;;;;;;5073574;28;20839;-58
2023/09/28 08:17:47;;;;;;;5.50;4.97;;;21.00;99.90;;;;;;5073111;28;20956;-57
2023/09/28 08:20:16;;;;;;;7.23;5.03;;;21.10;99.90;;;;;;5073349;28;20450;-57
2023/09/28 08:22:43;;;;;;;5.63;4.20;;;21.20;99.90;;;;;;5072704;28;20499;-58
2023/09/28 08:25:10;;;;;;;6.50;4.47;;;21.30;99.90;;;;;;5073137;28;20439;-57
2023/09/28 08:27:37;;;;;;;5.00;4.03;;;21.40;99.90;;;;;;5072993;28;20499;-57
2023/09/28 08:30:07;;;;;;;4.70;4.27;;;21.40;99.90;;;;;;5072955;28;20943;-57
2023/09/28 08:32:33;;;;;;;5.60;4.20;;;21.60;99.90;;;;;;5072376;28;20489;-58
2023/09/28 08:35:00;;;;;;;4.10;3.70;;;21.70;99.90;;;;;;5073166;28;20443;-58
2023/09/28 08:37:28;;;;;;;5.40;4.20;;;21.80;99.90;;;;;;5073085;28;20450;-59
2023/09/28 08:39:57;;;;;;;4.10;3.70;;;21.90;99.90;;;;;;5072535;28;20465;-58
2023/09/28 08:42:26;;;;;;;6.20;4.37;;;21.90;99.70;;;;;;5073083;28;20463;-59
2023/09/28 08:45:01;;;;;;;14.73;6.57;;;22.00;99.10;;;;;;5072918;28;20451;-59
2023/09/28 08:47:34;;;;;;;7.23;4.20;;;22.10;98.50;;;;;;5072819;28;20539;-59
2023/09/28 08:50:01;;;;;;;6.00;3.87;;;22.10;97.90;;;;;;5072830;28;20432;-59
2023/09/28 08:52:30;;;;;;;7.10;4.10;;;22.20;97.50;;;;;;5072806;28;20983;-59
2023/09/28 08:54:58;;;;;;;5.70;4.10;;;22.30;96.90;;;;;;5073385;28;20545;-58
2023/09/28 08:57:27;;;;;;;5.33;4.83;;;22.40;96.30;;;;;;5074117;28;20454;-56
2023/09/28 08:59:55;;;;;;;4.83;4.07;;;22.50;95.80;;;;;;5077851;28;20439;-58
2023/09/28 09:02:22;;;;;;;5.00;4.33;;;22.60;95.20;;;;;;5078753;28;20485;-59
2023/09/28 09:04:50;;;;;;;5.63;3.90;;;22.70;94.70;;;;;;5079895;28;20443;-59
2023/09/28 09:07:19;;;;;;;4.67;4.10;;;22.80;94.00;;;;;;5079279;28;20439;-60
2023/09/28 09:09:46;;;;;;;4.67;4.00;;;22.90;93.30;;;;;;5079357;28;20536;-59
2023/09/28 09:12:13;;;;;;;5.20;3.97;;;23.00;92.70;;;;;;5079799;28;20493;-58
2023/09/28 09:14:40;;;;;;;6.30;3.87;;;23.00;91.80;;;;;;5078462;28;20473;-58
2023/09/28 09:17:08;;;;;;;5.00;4.47;;;23.00;91.40;;;;;;5076076;28;20442;-60
2023/09/28 09:19:35;;;;;;;5.70;5.07;;;22.90;91.40;;;;;;5075702;28;20856;-60
2023/09/28 09:22:04;;;;;;;3.60;3.30;;;23.00;91.50;;;;;;5075247;28;20490;-59
2023/09/28 09:24:32;;;;;;;6.00;4.30;;;23.00;91.20;;;;;;5075404;28;20848;-58
2023/09/28 09:26:58;;;;;;;8.30;4.00;;;23.20;91.00;;;;;;5076183;28;20445;-59
2023/09/28 09:29:26;;;;;;;5.03;4.53;;;23.20;90.50;;;;;;5076066;28;20439;-59
2023/09/28 09:31:52;;;;;;;8.27;4.43;;;23.10;90.20;;;;;;5075606;28;20482;-59
2023/09/28 09:34:20;;;;;;;17.67;5.17;;;23.10;90.30;;;;;;5076051;28;20439;-59
2023/09/28 09:36:53;;;;;;;10.30;5.00;;;23.20;90.40;;;;;;5076114;28;20446;-58
2023/09/28 09:39:25;;;;;;;14.40;4.60;;;23.20;90.30;;;;;;5075729;28;20447;-58
2023/09/28 09:41:53;;;;;;;8.03;4.27;;;23.30;90.20;;;;;;5076000;28;20455;-58
2023/09/28 09:44:21;;;;;;;6.40;4.30;;;23.40;90.00;;;;;;5075731;28;20439;-58
2023/09/28 09:46:49;;;;;;;5.20;4.30;;;23.50;89.50;;;;;;5075524;28;20542;-58
2023/09/28 09:49:16;;;;;;;5.13;3.67;;;23.50;88.80;;;;;;5075009;28;20447;-58
2023/09/28 09:51:45;;;;;;;6.70;3.70;;;23.60;88.40;;;;;;5075095;28;20463;-59
2023/09/28 09:54:13;;;;;;;4.47;3.53;;;23.60;87.70;;;;;;5075727;28;20542;-58
2023/09/28 09:56:46;;;;;;;4.67;4.17;;;23.60;86.80;;;;;;5076298;28;20443;-57
2023/09/28 09:59:15;;;;;;;5.47;4.30;;;23.50;87.00;;;;;;5074957;28;20901;-59
2023/09/28 10:01:46;;;;;;;8.93;4.10;;;23.50;86.10;;;;;;5075003;28;20497;-60
2023/09/28 10:04:16;;;;;;;10.00;4.60;;;23.60;86.00;;;;;;5075624;28;20431;-60
2023/09/28 10:06:45;;;;;;;8.27;4.37;;;23.70;85.80;;;;;;5075350;28;20419;-59
2023/09/28 10:09:13;;;;;;;4.83;4.10;;;23.80;85.60;;;;;;5075522;28;20446;-59
2023/09/28 10:11:42;;;;;;;5.77;4.20;;;23.80;85.00;;;;;;5075008;28;20903;-59
2023/09/28 10:14:10;;;;;;;6.53;4.50;;;23.80;84.30;;;;;;5076039;28;20493;-59
2023/09/28 10:16:37;;;;;;;4.37;3.77;;;23.80;83.80;;;;;;5075613;28;20534;-59
2023/09/28 10:19:06;;;;;;;8.40;4.37;;;23.70;83.50;;;;;;5074814;28;20509;-59
2023/09/28 10:21:35;;;;;;;6.37;4.50;;;23.70;83.50;;;;;;5075128;28;20473;-58
2023/09/28 10:24:09;;;;;;;6.30;4.53;;;23.80;83.40;;;;;;5074691;28;20493;-58
2023/09/28 10:26:38;;;;;;;6.07;4.20;;;23.90;83.00;;;;;;5075475;28;20481;-60
2023/09/28 10:29:07;;;;;;;6.40;4.20;;;24.10;82.50;;;;;;5074709;28;20475;-58
2023/09/28 10:31:37;;;;;;;7.50;4.60;;;24.10;81.40;;;;;;5074399;28;20462;-60
2023/09/28 10:34:05;;;;;;;6.47;3.90;;;24.10;80.60;;;;;;5074192;28;20478;-57
2023/09/28 10:36:33;;;;;;;4.13;3.70;;;24.10;80.50;;;;;;5074238;28;20443;-60
2023/09/28 10:39:14;;;;;;;6.87;4.23;;;24.20;79.70;;;;;;5074654;28;20971;-58
2023/09/28 10:41:45;;;;;;;4.73;4.23;;;24.20;78.70;;;;;;5076373;28;20808;-58
2023/09/28 10:44:16;;;;;;;4.40;3.73;;;24.20;77.80;;;;;;5075676;28;20431;-58
2023/09/28 10:46:43;;;;;;;5.93;3.90;;;24.10;77.30;;;;;;5075145;28;20894;-59
2023/09/28 10:49:13;;;;;;;4.17;3.30;;;24.10;76.80;;;;;;5074003;28;20447;-58
2023/09/28 10:51:39;;;;;;;4.70;3.90;;;24.10;76.10;;;;;;5074175;28;20459;-58
2023/09/28 10:54:08;;;;;;;5.10;3.40;;;24.00;75.40;;;;;;5073964;28;20487;-59
2023/09/28 10:56:35;;;;;;;4.07;3.67;;;24.00;75.20;;;;;;5075000;28;20448;-60
2023/09/28 10:59:04;;;;;;;4.87;3.53;;;24.10;75.20;;;;;;5074197;28;21020;-59
2023/09/28 11:01:33;;;;;;;5.80;3.30;;;24.20;74.80;;;;;;5074906;28;20506;-59
2023/09/28 11:03:59;;;;;;;4.37;3.47;;;24.20;74.00;;;;;;5074583;28;20439;-60
2023/09/28 11:06:26;;;;;;;6.43;3.53;;;24.20;73.70;;;;;;5074938;28;20492;-59
2023/09/28 11:08:53;;;;;;;3.87;3.53;;;24.30;73.50;;;;;;5074160;28;20806;-59
2023/09/28 11:11:21;;;;;;;6.30;3.73;;;24.40;73.30;;;;;;5073929;28;20474;-58
2023/09/28 11:13:49;;;;;;;4.70;3.70;;;24.40;72.80;;;;;;5074249;28;20483;-58
2023/09/28 11:16:18;;;;;;;4.37;3.47;;;24.50;72.60;;;;;;5074626;28;20443;-59
2023/09/28 11:18:46;;;;;;;5.00;3.23;;;24.60;72.40;;;;;;5074395;28;20439;-60
2023/09/28 11:21:13;;;;;;;6.23;3.60;;;24.60;72.10;;;;;;5073761;28;20466;-59
2023/09/28 11:23:41;;;;;;;4.03;3.40;;;24.60;71.80;;;;;;5074084;28;20801;-60
2023/09/28 11:26:10;;;;;;;6.20;3.83;;;24.60;71.80;;;;;;5073737;28;20856;-59
2023/09/28 11:28:37;;;;;;;5.67;3.30;;;24.60;71.80;;;;;;5074335;28;20455;-58
2023/09/28 11:31:07;;;;;;;4.00;3.43;;;24.60;71.80;;;;;;5073510;28;21007;-60
2023/09/28 11:33:34;;;;;;;4.50;3.37;;;24.70;71.70;;;;;;5073271;28;21055;-58
2023/09/28 11:36:03;;;;;;;4.37;3.63;;;24.70;71.30;;;;;;5073360;28;20454;-58
2023/09/28 11:38:30;;;;;;;4.97;3.60;;;24.70;71.10;;;;;;5073657;28;20443;-59
2023/09/28 11:40:57;;;;;;;4.00;3.50;;;24.80;71.20;;;;;;5074574;28;20513;-59
2023/09/28 11:43:24;;;;;;;4.43;3.30;;;24.90;71.10;;;;;;5077385;28;20443;-59
2023/09/28 11:45:51;;;;;;;3.90;3.50;;;25.00;70.70;;;;;;5076516;28;20443;-58
2023/09/28 11:48:19;;;;;;;3.57;3.10;;;24.90;70.10;;;;;;5076237;28;20444;-60
2023/09/28 11:50:46;;;;;;;6.47;3.53;;;24.90;70.20;;;;;;5077023;28;20482;-59
2023/09/28 11:53:16;;;;;;;5.70;3.80;;;24.90;70.30;;;;;;5076516;28;21022;-59
2023/09/28 11:55:46;;;;;;;4.10;3.73;;;25.00;70.20;;;;;;5074500;28;20447;-59
2023/09/28 11:58:18;;;;;;;6.93;3.30;;;25.10;69.90;;;;;;5073301;28;20424;-58
2023/09/28 12:00:45;;;;;;;5.77;3.33;;;25.10;69.80;;;;;;5073173;28;20424;-58
2023/09/28 12:03:12;;;;;;;4.00;3.60;;;25.00;70.00;;;;;;5073256;28;20489;-58
2023/09/28 12:05:40;;;;;;;6.00;4.10;;;25.00;70.00;;;;;;5073120;28;20457;-59
2023/09/28 12:08:07;;;;;;;5.10;3.50;;;25.00;69.90;;;;;;5073152;28;20538;-59
2023/09/28 12:10:37;;;;;;;5.27;4.00;;;24.90;69.70;;;;;;5072962;28;20900;-59
2023/09/28 12:13:04;;;;;;;7.17;3.93;;;24.90;69.90;;;;;;5073038;28;20483;-58
2023/09/28 12:15:30;;;;;;;5.60;3.57;;;24.90;70.00;;;;;;5072936;28;20443;-58
2023/09/28 12:17:57;;;;;;;6.70;3.80;;;25.00;69.90;;;;;;5074737;28;20434;-60
2023/09/28 12:20:24;;;;;;;4.70;3.73;;;25.10;69.70;;;;;;5074380;28;20477;-59
2023/09/28 12:22:52;;;;;;;4.50;4.10;;;25.20;69.50;;;;;;5072991;28;20463;-58
2023/09/28 12:25:18;;;;;;;6.13;3.90;;;25.10;69.30;;;;;;5073655;28;20477;-60
2023/09/28 12:27:46;;;;;;;6.60;3.97;;;25.10;69.20;;;;;;5073219;28;20815;-60
2023/09/28 12:30:18;;;;;;;6.90;4.30;;;25.10;69.00;;;;;;5072746;28;20552;-60
2023/09/28 12:32:45;;;;;;;5.10;4.60;;;25.10;69.20;;;;;;5074452;28;20490;-59
2023/09/28 12:35:12;;;;;;;5.80;4.13;;;25.20;69.50;;;;;;5076763;28;20446;-59
2023/09/28 12:37:39;;;;;;;10.03;4.23;;;25.30;69.20;;;;;;5076895;28;20526;-60
2023/09/28 12:40:12;;;;;;;4.80;4.27;;;25.40;68.80;;;;;;5077123;28;20506;-59
2023/09/28 12:42:39;;;;;;;5.73;3.50;;;25.30;68.70;;;;;;5076862;28;20545;-58
2023/09/28 12:45:09;;;;;;;6.70;3.97;;;25.30;68.80;;;;;;5076334;28;20936;-59
2023/09/28 12:47:36;;;;;;;5.00;3.60;;;25.30;68.90;;;;;;5076338;28;20941;-59
2023/09/28 12:50:03;;;;;;;5.00;4.50;;;25.20;68.80;;;;;;5076011;28;20959;-58